Tiempo atmosférico en la estación meteorológica de Villarino De Los Aires, Salamanca (700 m.)



Fecha
DESCASC
Temp. máxima en grados centígrados (hora)
DESCASC
Temp. mínima en grados centígrados (hora)
DESCASC
Temp. media en grados centígrados
DESCASC
Racha de viento máxima en m/sg (hora)
DESCASC
Velocidad máxima media en intervalos de 10 minutos(hora)
DESCASC
Precipitaciones diarias en mm
DESCASC
Precipitaciones de 00:00 a 06:00 en mm
DESCASC
Precipitaciones de 06:00 a 12:00 en mm
DESCASC
Precipitaciones de 12:00 a 18:00 en mm
DESCASC
Precipitaciones de 18:00 a 24:00 en mm
DESCASC
07-08-2020 37 (17:30) 20.3 (07:40) 28.6 10 (15:00) 5.83 (20:00) 0 0 0 0 0
06-08-2020 38.2 (17:00) 18.8 (07:20) 28.5 10.28 (18:00) 6.11 (18:00) 0 0 0 0 0
05-08-2020 37.9 (20:00) 15.4 (07:10) 26.7 6.94 (16:20) 3.61 (16:10) 0 0 0 0 0
04-08-2020 34 (19:40) 15.6 (07:20) 24.8 8.06 (11:50) 5 (11:00) 0 0 0 0 0
03-08-2020 31.9 (19:30) 15.1 (07:30) 23.5 8.33 (22:30) 5 (20:30) 0 0 0 0 0
02-08-2020 32 (17:50) 14.6 (07:20) 23.3 10.56 (12:40) 6.39 (20:50) 0 0 0 0 0
01-08-2020 33.6 (18:00) 17 (00:00) 25.3 11.39 (17:30) 7.5 (18:10) 0 0 0 0 0
31-07-2020 36.6 (17:10) 17.6 (07:30) 27.1 13.61 (14:00) 6.39 (21:20) 0 0 0 0 0
30-07-2020 37.3 (18:20) 21.1 (00:00) 29.2 9.72 (16:10) 6.39 (20:30) 0 0 0 0 0
29-07-2020 38.9 (19:40) 17.1 (00:00) 28 8.89 (19:00) 4.72 (09:00) 0 0 0 0 0
28-07-2020 37 (18:00) 17.5 (07:20) 27.3 7.78 (00:50) 5.28 (01:10) 0 0 0 0 0
27-07-2020 38.8 (17:30) 18.1 (00:00) 28.4 11.11 (20:20) 7.78 (20:20) 0 0 0 0 0
26-07-2020 37.5 (18:30) 15.3 (00:00) 26.4 7.78 (18:10) 4.44 (18:10) 0 0 0 0 0
25-07-2020 35.6 (17:20) 16.3 (07:20) 25.9 10.28 (21:10) 7.22 (21:00) 0 0 0 0 0
24-07-2020 35.1 (18:20) 15.7 (00:00) 25.4 10.56 (18:30) 5 (20:30) 0 0 0 0 0
23-07-2020 36.8 (17:50) 19.6 (00:00) 28.2 10.83 (18:50) 6.94 (19:50) 0 0 0 0 0
22-07-2020 35.3 (16:20) 18.5 (07:10) 26.9 7.22 (01:00) 4.72 (01:50) 0 0 0 0 0
21-07-2020 31.4 (15:40) 17.7 (00:00) 24.6 11.94 (16:00) 6.67 (16:00) 0 0 0 0 0
20-07-2020 36.8 (17:50) 17.2 (06:10) 27 9.17 (16:20) 5.28 (15:40) 0 0 0 0 0
19-07-2020 36.7 (17:50) 18.4 (00:00) 27.6 10.28 (21:20) 7.5 (20:50) 0 0 0 0 0
18-07-2020 36.3 (20:20) 14 (00:00) 25.1 8.61 (02:30) 5 (00:20) 0 0 0 0 0
17-07-2020 35.4 (19:20) 15.5 (00:00) 25.5 9.17 (15:40) 5.56 (11:40) 0 0 0 0 0
16-07-2020 34.8 (18:30) 15.2 (00:00) 25 9.17 (01:10) 6.39 (01:10) 0 0 0 0 0
15-07-2020 31.7 (18:50) 13.3 (06:50) 22.5 11.94 (00:50) 7.22 (10:20) 0 0 0 0 0
14-07-2020 32.8 (18:30) 14.8 (00:00) 23.8 9.17 (02:30) 5.28 (23:59) 0 0 0 0 0
13-07-2020 33.8 (17:40) 16 (06:40) 24.9 8.33 (16:00) 5.28 (23:59) 0 0 0 0 0

Gráficas

Temp. máximas Temp. mínimas Temp. medias Precipitaciones Rachas de viento máximas Velocidades máximas media en intervalos de 10 minutos

Datos horarios

Fecha y hora oficial Temperatura (ºC) Velocidad del viento (km/h) Dirección del viento Racha (km/h) Dirección de racha Precipitación (mm) Presión (hPa) Tendencia (hPa) Humedad (%)
2020-08-11 23:00:00 21.5 10 Nordeste 15 Nordeste 0 -- -- 54
2020-08-11 22:00:00 22.3 4 Oeste 21 Sudeste 0 -- -- 48
2020-08-11 21:00:00 24.4 15 Sudeste 31 Sudeste 0 -- -- 44
2020-08-11 20:00:00 25.4 21 Sudeste 39 Este 0 -- -- 40
2020-08-11 19:00:00 26.4 25 Este 39 Este 0 -- -- 43
2020-08-11 18:00:00 27.6 26 Este 42 Este 0 -- -- 41
2020-08-11 17:00:00 24.1 24 Este 47 Este 0 -- -- 52
2020-08-11 16:00:00 27.9 14 Este 35 Este 0 -- -- 40
2020-08-11 15:00:00 29.5 10 Sudoeste 26 Sur 0 -- -- 33
2020-08-11 14:00:00 29 11 Sudoeste 26 Sudeste 0 -- -- 31
2020-08-11 13:00:00 28.8 11 Sudoeste 23 Sur 0 -- -- 30
2020-08-11 12:00:00 29.2 11 Sudoeste 24 Sudoeste 0 -- -- 29
2020-08-11 11:00:00 25.8 4 Noroeste 11 Noroeste 0 -- -- 44
2020-08-11 10:00:00 22.9 4 Norte 8 Norte 0 -- -- 54
2020-08-11 09:00:00 20 3 Sudeste 11 Sudeste 0 -- -- 60
2020-08-11 08:00:00 18.3 6 Sudeste 12 Este 0 -- -- 66
2020-08-11 07:00:00 18.5 2 Este 6 Sudeste 0 -- -- 66
2020-08-11 06:00:00 19.4 5 Norte 12 Sur 0 -- -- 63
2020-08-11 05:00:00 20 5 Sur 16 Sur 0 -- -- 61
2020-08-11 04:00:00 21.1 4 Nordeste 22 Sur 0 -- -- 57
2020-08-11 03:00:00 21.1 16 Sur 21 Sur 0 -- -- 54
2020-08-11 02:00:00 22.2 7 Sudoeste 12 Oeste 0 -- -- 53
2020-08-11 01:00:00 22.8 7 Sudoeste 10 Sudoeste 0 -- -- 56
2020-08-11 00:00:00 23.4 4 Oeste 15 Oeste 0 -- -- 50
2020-08-10 23:00:00 25.7 12 Oeste 22 Oeste 0 -- -- 34
2020-08-10 22:00:00 27.5 14 Sudoeste 20 Sudoeste 0 -- -- 27
2020-08-10 21:00:00 29.3 10 Sudoeste 27 Sudoeste 0 -- -- 27
2020-08-10 20:00:00 32.7 15 Sudoeste 36 Sudoeste 0 -- -- 23
2020-08-10 19:00:00 33.2 18 Sudoeste 40 Sudoeste 0 -- -- 23
2020-08-10 18:00:00 33.4 22 Sudoeste 36 Sudoeste 0 -- -- 22
2020-08-10 17:00:00 34.5 10 Sudoeste 31 Oeste 0 -- -- 22
2020-08-10 16:00:00 33.9 13 Sudoeste 35 Oeste 0 -- -- 23
2020-08-10 15:00:00 32.6 11 Sudoeste 33 Oeste 0 -- -- 25
2020-08-10 14:00:00 30.8 13 Sudoeste 28 Oeste 0 -- -- 27
2020-08-10 13:00:00 29.9 10 Sudoeste 22 Sudoeste 0 -- -- 32
2020-08-10 12:00:00 26.9 6 Oeste 12 Oeste 0 -- -- 49
2020-08-10 11:00:00 23.6 6 Noroeste 12 Noroeste 0 -- -- 58
2020-08-10 10:00:00 20.5 4 Noroeste 9 Oeste 0 -- -- 68
2020-08-10 09:00:00 18.2 5 Oeste 9 Sudoeste 0 -- -- 76
2020-08-10 08:00:00 16.2 4 Sudoeste 12 Sudoeste 0 -- -- 83
2020-08-10 07:00:00 15.5 4 Sudoeste 12 Sudoeste 0 -- -- 83
2020-08-10 06:00:00 17 5 Sudoeste 18 Sudoeste 0 -- -- 78
2020-08-10 05:00:00 17.8 16 Sudoeste 21 Sudoeste 0 -- -- 75
2020-08-10 04:00:00 18.9 16 Sur 24 Sur 0 -- -- 69
2020-08-10 03:00:00 20.1 15 Sudoeste 20 Sur 0 -- -- 63
2020-08-10 02:00:00 21.6 14 Sudoeste 19 Sudoeste 0 -- -- 53
2020-08-10 01:00:00 22.2 7 Sudoeste 21 Oeste 0 -- -- 46
2020-08-10 00:00:00 25.6 17 Sudoeste 23 Oeste 0 -- -- 36
2020-08-09 23:00:00 26.4 14 Oeste 22 Oeste 0 -- -- 38
2020-08-09 22:00:00 27.5 14 Oeste 29 Oeste 0 -- -- 33
2020-08-09 21:00:00 31.1 21 Noroeste 28 Oeste 0 -- -- 25
2020-08-09 20:00:00 34.3 15 Oeste 32 Oeste 0 -- -- 16
2020-08-09 19:00:00 34.9 18 Oeste 32 Oeste 0 -- -- 16
2020-08-09 18:00:00 34.8 16 Oeste 31 Oeste 0 -- -- 15
2020-08-09 17:00:00 35.2 20 Oeste 33 Oeste 0 -- -- 16
2020-08-09 16:00:00 33.9 16 Sudoeste 37 Oeste 0 -- -- 18
2020-08-09 15:00:00 33.6 17 Sudoeste 39 Oeste 0 -- -- 21
2020-08-09 14:00:00 32.7 19 Sudoeste 33 Sudoeste 0 -- -- 20
2020-08-09 13:00:00 31.6 16 Oeste 33 Oeste 0 -- -- 21
2020-08-09 12:00:00 29.3 6 Noroeste 14 Oeste 0 -- -- 42
2020-08-09 11:00:00 25.9 6 Norte 9 Norte 0 -- -- 52
2020-08-09 10:00:00 23.1 4 Noroeste 7 Noroeste 0 -- -- 58
2020-08-09 09:00:00 21.2 0 Calma 8 Sudeste 0 -- -- 61
2020-08-09 08:00:00 18.3 2 Este 14 Sur 0 -- -- 70
2020-08-09 07:00:00 19.2 11 Sur 20 Sur 0 -- -- 66
2020-08-09 06:00:00 19.6 11 Sur 15 Sur 0 -- -- 65
2020-08-09 05:00:00 20.3 7 Sur 19 Sur 0 -- -- 64
2020-08-09 04:00:00 21.8 16 Sur 24 Sur 0 -- -- 60
2020-08-09 03:00:00 24.1 10 Sudoeste 14 Oeste 0 -- -- 52
2020-08-09 02:00:00 24.9 11 Oeste 15 Sudoeste 0 -- -- 50
2020-08-09 01:00:00 25.5 10 Oeste 17 Oeste 0 -- -- 49
2020-08-09 00:00:00 26.9 12 Oeste 18 Oeste 0 -- -- 46
2020-08-08 23:00:00 27.6 9 Oeste 18 Oeste 0 -- -- 45
2020-08-08 22:00:00 28.9 13 Sudoeste 25 Sur 0 -- -- 41
2020-08-08 21:00:00 27.3 9 Sudoeste 48 Oeste 0.6 -- -- 49
2020-08-08 20:00:00 34 15 Sudoeste 34 Sudoeste 0 -- -- 28
2020-08-08 19:00:00 34.3 20 Sudoeste 32 Sudoeste 0 -- -- 28
2020-08-08 18:00:00 36.1 14 Sur 34 Sudoeste 0 -- -- 26
2020-08-08 17:00:00 36.3 19 Sudoeste 37 Sur 0 -- -- 27
2020-08-08 16:00:00 35.9 19 Sudoeste 36 Sur 0 -- -- 27
2020-08-08 15:00:00 35.8 12 Sudoeste 31 Sudoeste 0 -- -- 26
2020-08-08 14:00:00 33 14 Sudoeste 30 Sudoeste 0 -- -- 31
2020-08-08 13:00:00 33.2 12 Sur 31 Sudoeste 0 -- -- 34
2020-08-08 12:00:00 30.4 7 Noroeste 13 Noroeste 0 -- -- 40
2020-08-08 11:00:00 26.9 6 Noroeste 11 Noroeste 0 -- -- 48
2020-08-08 10:00:00 24.3 3 Noroeste 15 Este 0 -- -- 53
2020-08-08 09:00:00 22.2 5 Nordeste 11 Este 0 -- -- 61
2020-08-08 08:00:00 20.4 10 Este 14 Este 0 -- -- 66
2020-08-08 07:00:00 21 10 Sudeste 12 Este 0 -- -- 64
2020-08-08 06:00:00 21.9 9 Este 13 Este 0 -- -- 59
2020-08-08 05:00:00 22.3 7 Este 12 Este 0 -- -- 52
2020-08-08 04:00:00 22.8 3 Noroeste 8 Sudoeste 0 -- -- 50
2020-08-08 03:00:00 22.7 4 Sur 12 Nordeste 0 -- -- 51
2020-08-08 02:00:00 24.7 6 Oeste 10 Oeste 0 -- -- 47
2020-08-08 01:00:00 26.2 6 Oeste 15 Oeste 0 -- -- 42
2020-08-08 00:00:00 27.6 10 Oeste 19 Oeste 0 -- -- 38
2020-08-07 23:00:00 28.6 10 Oeste 22 Oeste 0 -- -- 36
2020-08-07 22:00:00 30 12 Noroeste 22 Noroeste 0 -- -- 35
2020-08-07 21:00:00 32.7 12 Oeste 26 Sudoeste 0 -- -- 32
2020-08-07 20:00:00 34.7 21 Oeste 33 Oeste 0 -- -- 30
2020-08-07 19:00:00 35.9 15 Sudoeste 33 Oeste 0 -- -- 28
2020-08-07 18:00:00 37 14 Oeste 30 Sudoeste 0 -- -- 26
2020-08-07 17:00:00 35.5 16 Sudoeste 36 Sudoeste 0 -- -- 28
2020-08-07 16:00:00 36.2 17 Sudoeste 32 Sudoeste 0 -- -- 27
2020-08-07 15:00:00 35.7 18 Sudoeste 36 Oeste 0 -- -- 28
2020-08-07 14:00:00 35.1 11 Sudoeste 26 Oeste 0 -- -- 28
2020-08-07 13:00:00 34.8 10 Oeste 22 Oeste 0 -- -- 30
2020-08-07 12:00:00 31.8 7 Noroeste 10 Norte 0 -- -- 36
2020-08-07 11:00:00 28 5 Norte 9 Noroeste 0 -- -- 44
2020-08-07 10:00:00 24.3 4 Norte 7 Oeste 0 -- -- 52
2020-08-07 09:00:00 22.3 3 Oeste 6 Oeste 0 -- -- 57
2020-08-07 08:00:00 20.4 4 Oeste 7 Oeste 0 -- -- 62
2020-08-07 07:00:00 20.9 3 Este 19 Sur 0 -- -- 60
2020-08-07 06:00:00 22.1 14 Sur 22 Sudoeste 0 -- -- 57
2020-08-07 05:00:00 22.7 18 Sur 22 Sur 0 -- -- 55
2020-08-07 04:00:00 23.6 16 Sur 20 Sur 0 -- -- 50
2020-08-07 03:00:00 24.9 11 Sudoeste 15 Sudoeste 0 -- -- 47
2020-08-07 02:00:00 26.2 12 Sudoeste 15 Sudoeste 0 -- -- 45
2020-08-07 01:00:00 27.2 9 Oeste 19 Oeste 0 -- -- 42
2020-08-07 00:00:00 28.7 12 Oeste 22 Oeste 0 -- -- 38
2020-08-06 23:00:00 29.8 14 Sudoeste 21 Sudoeste 0 -- -- 33
2020-08-06 22:00:00 30.8 11 Sur 15 Sur 0 -- -- 29
2020-08-06 21:00:00 33.8 8 Sudoeste 24 Oeste 0 -- -- 27
2020-08-06 20:00:00 35.8 13 Oeste 32 Sudoeste 0 -- -- 25
2020-08-06 19:00:00 36.2 15 Sur 36 Sudoeste 0 -- -- 25
2020-08-06 18:00:00 37.1 22 Sur 37 Sudoeste 0 -- -- 22
2020-08-06 17:00:00 38.2 20 Oeste 35 Sudoeste 0 -- -- 19
2020-08-06 16:00:00 37.8 16 Sudoeste 33 Sur 0 -- -- 22
2020-08-06 15:00:00 37.8 13 Sudoeste 33 Sur 0 -- -- 22
2020-08-06 14:00:00 36.5 8 Nordeste 22 Noroeste 0 -- -- 24
2020-08-06 13:00:00 34.5 5 Este 22 Nordeste 0 -- -- 25
2020-08-06 12:00:00 31.4 9 Este 22 Este 0 -- -- 29
2020-08-06 11:00:00 27.6 11 Este 26 Este 0 -- -- 33
2020-08-06 10:00:00 24.6 14 Este 25 Nordeste 0 -- -- 38
2020-08-06 09:00:00 21.3 8 Nordeste 14 Nordeste 0 -- -- 46
2020-08-06 08:00:00 19.1 7 Este 13 Este 0 -- -- 50
2020-08-06 07:00:00 18.9 7 Nordeste 9 Este 0 -- -- 48
2020-08-06 06:00:00 19.7 3 Nordeste 12 Este 0 -- -- 47
2020-08-06 05:00:00 20.1 0 Calma 12 Este 0 -- -- 47
2020-08-06 04:00:00 21.4 10 Sudeste 13 Sudeste 0 -- -- 42
2020-08-06 03:00:00 22.6 4 Oeste 8 Sudeste 0 -- -- 39
2020-08-06 02:00:00 24.3 7 Sudeste 9 Sudeste 0 -- -- 35
2020-08-06 01:00:00 25.8 0 Calma 15 Oeste 0 -- -- 33
2020-08-06 00:00:00 27.6 10 Sudeste 19 Nordeste 0 -- -- 31
2020-08-05 23:00:00 27.9 3 Sur 7 Oeste 0 -- -- 30
2020-08-05 22:00:00 29.4 4 Oeste 7 Norte 0 -- -- 27
2020-08-05 21:00:00 36.2 3 Norte 14 Oeste 0 -- -- 20
2020-08-05 20:00:00 37.9 5 Noroeste 13 Oeste 0 -- -- 19
2020-08-05 19:00:00 36.6 10 Noroeste 21 Oeste 0 -- -- 20
2020-08-05 18:00:00 37.3 10 Noroeste 18 Noroeste 0 -- -- 20
2020-08-05 17:00:00 36.3 9 Noroeste 25 Noroeste 0 -- -- 21
2020-08-05 16:00:00 35.5 10 Noroeste 22 Oeste 0 -- -- 21
2020-08-05 15:00:00 34.2 9 Norte 22 Noroeste 0 -- -- 23
2020-08-05 14:00:00 33.5 11 Noroeste 19 Noroeste 0 -- -- 24
2020-08-05 13:00:00 31 9 Nordeste 18 Este 0 -- -- 27
2020-08-05 12:00:00 28.8 9 Nordeste 19 Nordeste 0 -- -- 32
2020-08-05 11:00:00 25.3 8 Nordeste 16 Nordeste 0 -- -- 40
2020-08-05 10:00:00 20.9 6 Nordeste 11 Nordeste 0 -- -- 51
2020-08-05 09:00:00 18.3 4 Nordeste 6 Nordeste 0 -- -- 54
2020-08-05 08:00:00 15.9 0 Calma 5 Nordeste 0 -- -- 56
2020-08-05 07:00:00 15.6 2 Nordeste 6 Este 0 -- -- 56
2020-08-05 06:00:00 16 4 Nordeste 6 Nordeste 0 -- -- 53
2020-08-05 05:00:00 17.3 2 Nordeste 6 Este 0 -- -- 49
2020-08-05 04:00:00 19.3 5 Este 15 Este 0 -- -- 44
2020-08-05 03:00:00 19.8 10 Este 13 Sudeste 0 -- -- 42
2020-08-05 02:00:00 21.6 8 Este 14 Sudeste 0 -- -- 38
2020-08-05 01:00:00 22.2 6 Este 15 Este 0 -- -- 40
2020-08-05 00:00:00 23.4 9 Sudeste 16 Sudeste 0 -- -- 36
2020-08-04 23:00:00 24 9 Sudeste 15 Sudeste 0 -- -- 36
2020-08-04 22:00:00 25.4 10 Sudeste 14 Este 0 -- -- 30
2020-08-04 21:00:00 30.5 6 Nordeste 13 Norte 0 -- -- 23
2020-08-04 20:00:00 32.6 7 Nordeste 16 Noroeste 0 -- -- 21
2020-08-04 19:00:00 33.3 8 Norte 21 Noroeste 0 -- -- 20
2020-08-04 18:00:00 33.5 10 Norte 19 Norte 0 -- -- 20
2020-08-04 17:00:00 32.5 11 Norte 24 Norte 0 -- -- 23
2020-08-04 16:00:00 31 12 Nordeste 25 Nordeste 0 -- -- 27
2020-08-04 15:00:00 30.1 10 Este 22 Nordeste 0 -- -- 30
2020-08-04 14:00:00 28.8 10 Nordeste 24 Este 0 -- -- 33
2020-08-04 13:00:00 27.5 13 Este 29 Este 0 -- -- 35
2020-08-04 12:00:00 24.9 17 Nordeste 29 Este 0 -- -- 40
2020-08-04 11:00:00 22.9 18 Este 26 Este 0 -- -- 45
2020-08-04 10:00:00 20.6 17 Nordeste 25 Este 0 -- -- 52
2020-08-04 09:00:00 17.4 10 Nordeste 15 Norte 0 -- -- 58
2020-08-04 08:00:00 15.9 5 Nordeste 14 Este 0 -- -- 64
2020-08-04 07:00:00 16.2 10 Este 22 Este 0 -- -- 65
2020-08-04 06:00:00 16.3 9 Este 21 Este 0 -- -- 68
2020-08-04 05:00:00 17 10 Este 18 Nordeste 0 -- -- 65
2020-08-04 04:00:00 17.4 8 Este 14 Nordeste 0 -- -- 61
2020-08-04 03:00:00 18.7 10 Nordeste 19 Nordeste 0 -- -- 58
2020-08-04 02:00:00 19.8 6 Norte 10 Oeste 0 -- -- 59
2020-08-04 01:00:00 20.5 6 Oeste 21 Oeste 0 -- -- 57
2020-08-04 00:00:00 21.8 13 Oeste 23 Noroeste 0 -- -- 53
2020-08-03 23:00:00 23.1 17 Noroeste 30 Oeste 0 -- -- 49
2020-08-03 22:00:00 24.7 15 Oeste 23 Oeste 0 -- -- 43
2020-08-03 21:00:00 28.1 17 Oeste 27 Oeste 0 -- -- 32
2020-08-03 20:00:00 30.8 13 Noroeste 24 Noroeste 0 -- -- 28
2020-08-03 19:00:00 31.3 14 Noroeste 28 Oeste 0 -- -- 27
2020-08-03 18:00:00 31.7 12 Noroeste 26 Oeste 0 -- -- 27
2020-08-03 17:00:00 31 12 Noroeste 24 Noroeste 0 -- -- 28
2020-08-03 16:00:00 30.3 11 Oeste 27 Norte 0 -- -- 30
2020-08-03 15:00:00 28.2 6 Sur 21 Oeste 0 -- -- 34
2020-08-03 14:00:00 27.4 10 Noroeste 22 Norte 0 -- -- 35
2020-08-03 13:00:00 26.6 6 Norte 19 Oeste 0 -- -- 37
2020-08-03 12:00:00 24.1 10 Nordeste 16 Nordeste 0 -- -- 42
2020-08-03 11:00:00 22 8 Este 21 Nordeste 0 -- -- 49
2020-08-03 10:00:00 19 7 Nordeste 15 Nordeste 0 -- -- 58
2020-08-03 09:00:00 16.8 10 Nordeste 15 Nordeste 0 -- -- 65
2020-08-03 08:00:00 15.5 4 Nordeste 13 Este 0 -- -- 69
2020-08-03 07:00:00 15.5 7 Este 14 Nordeste 0 -- -- 69
2020-08-03 06:00:00 16.2 6 Nordeste 19 Este 0 -- -- 67
2020-08-03 05:00:00 17.2 11 Este 24 Nordeste 0 -- -- 64
2020-08-03 04:00:00 18 11 Nordeste 23 Norte 0 -- -- 62
2020-08-03 03:00:00 18.7 6 Este 14 Nordeste 0 -- -- 60
2020-08-03 02:00:00 20 9 Oeste 15 Oeste 0 -- -- 44
2020-08-03 01:00:00 21 14 Oeste 22 Oeste 0 -- -- 44
2020-08-03 00:00:00 21.9 12 Oeste 26 Oeste 0 -- -- 40
2020-08-02 23:00:00 22.8 15 Oeste 24 Oeste 0 -- -- 37
2020-08-02 22:00:00 24.3 18 Oeste 31 Oeste 0 -- -- 28
2020-08-02 21:00:00 26.2 21 Noroeste 32 Oeste 0 -- -- 30
2020-08-02 20:00:00 30.8 17 Noroeste 30 Oeste 0 -- -- 26
2020-08-02 19:00:00 30.8 15 Oeste 25 Oeste 0 -- -- 27
2020-08-02 18:00:00 31.4 10 Oeste 23 Oeste 0 -- -- 29
2020-08-02 17:00:00 31.1 11 Noroeste 22 Nordeste 0 -- -- 29
2020-08-02 16:00:00 30.8 8 Noroeste 20 Norte 0 -- -- 31
2020-08-02 15:00:00 28.9 9 Norte 26 Norte 0 -- -- 35
2020-08-02 14:00:00 28.3 14 Norte 25 Norte 0 -- -- 39
2020-08-02 13:00:00 26.6 11 Nordeste 38 Nordeste 0 -- -- 45
2020-08-02 12:00:00 24.7 14 Nordeste 22 Este 0 -- -- 51
2020-08-02 11:00:00 21.6 13 Nordeste 24 Nordeste 0 -- -- 60
2020-08-02 10:00:00 19.6 13 Nordeste 24 Nordeste 0 -- -- 67
2020-08-02 09:00:00 17.5 10 Nordeste 19 Nordeste 0 -- -- 74
2020-08-02 08:00:00 15.6 7 Este 12 Este 0 -- -- 82
2020-08-02 07:00:00 15.1 5 Nordeste 13 Este 0 -- -- 85
2020-08-02 06:00:00 16 9 Este 15 Nordeste 0 -- -- 81
2020-08-02 05:00:00 16.8 12 Nordeste 18 Nordeste 0 -- -- 78
2020-08-02 04:00:00 17.4 9 Este 19 Este 0 -- -- 76
2020-08-02 03:00:00 18.7 13 Este 22 Este 0 -- -- 71
2020-08-02 02:00:00 20.6 6 Norte 10 Norte 0 -- -- 52
2020-08-02 01:00:00 22 5 Norte 17 Oeste 0 -- -- 47
2020-08-02 00:00:00 23.1 10 Noroeste 23 Noroeste 0 -- -- 46
2020-08-01 23:00:00 24.3 13 Noroeste 26 Noroeste 0 -- -- 46
2020-08-01 22:00:00 26.1 12 Noroeste 27 Oeste 0 -- -- 43
2020-08-01 21:00:00 30.1 18 Noroeste 32 Oeste 0 -- -- 31
2020-08-01 20:00:00 32.6 17 Noroeste 32 Oeste 0 -- -- 27
2020-08-01 19:00:00 33.6 13 Noroeste 40 Oeste 0 -- -- 24
2020-08-01 18:00:00 33.6 18 Oeste 41 Oeste 0 -- -- 25
2020-08-01 17:00:00 32.6 22 Oeste 38 Oeste 0 -- -- 29
2020-08-01 16:00:00 31.4 21 Oeste 40 Oeste 0 -- -- 32
2020-08-01 15:00:00 32.3 16 Oeste 30 Noroeste 0 -- -- 35
2020-08-01 14:00:00 31.5 13 Noroeste 28 Oeste 0 -- -- 34
2020-08-01 13:00:00 29.9 12 Noroeste 25 Noroeste 0 -- -- 38
2020-08-01 12:00:00 26.8 11 Oeste 23 Oeste 0 -- -- 46
2020-08-01 11:00:00 23.9 15 Oeste 21 Oeste 0 -- -- 52
2020-08-01 10:00:00 22.1 7 Noroeste 14 Oeste 0 -- -- 56
2020-08-01 09:00:00 19.5 7 Oeste 10 Noroeste 0 -- -- 63
2020-08-01 08:00:00 17.3 6 Oeste 18 Sudoeste 0 -- -- 69
2020-08-01 07:00:00 17.6 14 Sudoeste 21 Sudoeste 0 -- -- 65
2020-08-01 06:00:00 17.8 12 Sudoeste 21 Sudoeste 0 -- -- 61
2020-08-01 05:00:00 18.7 8 Oeste 22 Oeste 0 -- -- 58
2020-08-01 04:00:00 20.2 16 Sudoeste 23 Sudoeste 0 -- -- 54
2020-08-01 03:00:00 21.3 15 Oeste 27 Sudoeste 0 -- -- 51
2020-08-01 02:00:00 22.5 12 Sudoeste 21 Oeste 0 -- -- 45
2020-08-01 01:00:00 23.6 13 Oeste 21 Oeste 0 -- -- 41
2020-08-01 00:00:00 24.5 9 Oeste 23 Oeste 0 -- -- 30
2020-07-31 23:00:00 26.6 13 Noroeste 27 Oeste 0 -- -- 26
2020-07-31 22:00:00 29.1 17 Noroeste 35 Oeste 0 -- -- 24
2020-07-31 21:00:00 33.4 18 Oeste 32 Oeste 0 -- -- 18
2020-07-31 20:00:00 35.5 18 Oeste 32 Noroeste 0 -- -- 19
2020-07-31 19:00:00 35.9 18 Oeste 35 Oeste 0 -- -- 14
2020-07-31 18:00:00 36.1 20 Oeste 34 Oeste 0 -- -- 14
2020-07-31 17:00:00 36.3 13 Oeste 48 Oeste 0 -- -- 18
2020-07-31 16:00:00 35.4 18 Oeste 33 Oeste 0 -- -- 18
2020-07-31 15:00:00 34.4 14 Sudoeste 31 Oeste 0 -- -- 19
2020-07-31 14:00:00 33.3 16 Sudoeste 49 Oeste 0 -- -- 24
2020-07-31 13:00:00 32.3 13 Noroeste 23 Oeste 0 -- -- 28
2020-07-31 12:00:00 30.2 7 Oeste 15 Oeste 0 -- -- 32
2020-07-31 11:00:00 26.5 4 Noroeste 9 Noroeste 0 -- -- 39
2020-07-31 10:00:00 23.1 3 Noroeste 5 Noroeste 0 -- -- 51
2020-07-31 09:00:00 21 0 Calma 5 Este 0 -- -- 53
2020-07-31 08:00:00 18.7 4 Este 9 Sudeste 0 -- -- 56
2020-07-31 07:00:00 18.3 2 Sudeste 6 Sur 0 -- -- 52
2020-07-31 06:00:00 19.2 2 Este 26 Sur 0 -- -- 51
2020-07-31 05:00:00 20.9 19 Sur 25 Sur 0 -- -- 47
2020-07-31 04:00:00 21.5 5 Oeste 8 Sur 0 -- -- 54
2020-07-31 03:00:00 21.6 4 Sudeste 9 Sudeste 0 -- -- 56
2020-07-31 02:00:00 23.1 7 Sudoeste 10 Sur 0 -- -- 50
2020-07-31 01:00:00 23.2 0 Calma 5 Sudoeste 0 -- -- 51
2020-07-31 00:00:00 24.2 0 Calma 11 Oeste 0 -- -- 47
2020-07-30 23:00:00 26.7 7 Noroeste 23 Norte 0 -- -- 34
2020-07-30 22:00:00 28.4 10 Noroeste 26 Noroeste 0 -- -- 32
2020-07-30 21:00:00 31.1 13 Noroeste 33 Oeste 0 -- -- 33
2020-07-30 20:00:00 33.6 15 Sudoeste 30 Oeste 0 -- -- 27
2020-07-30 19:00:00 34.5 10 Oeste 30 Sudoeste 0 -- -- 27
2020-07-30 18:00:00 35.8 14 Noroeste 33 Noroeste 0 -- -- 28
2020-07-30 17:00:00 34.1 13 Noroeste 35 Oeste 0 -- -- 30
2020-07-30 16:00:00 33.9 15 Sudoeste 33 Oeste 0 -- -- 29
2020-07-30 15:00:00 36.4 14 Sur 29 Sudoeste 0 -- -- 26
2020-07-30 14:00:00 35.4 14 Sudoeste 28 Oeste 0 -- -- 28
2020-07-30 13:00:00 33.9 12 Sudoeste 26 Sudoeste 0 -- -- 31
2020-07-30 12:00:00 31.2 8 Noroeste 14 Noroeste 0 -- -- 38
2020-07-30 11:00:00 28 6 Norte 13 Nordeste 0 -- -- 45
2020-07-30 10:00:00 25.2 7 Nordeste 11 Este 0 -- -- 52
2020-07-30 09:00:00 23.5 7 Este 11 Este 0 -- -- 55
2020-07-30 08:00:00 21.7 5 Este 15 Este 0 -- -- 59
2020-07-30 07:00:00 21.1 8 Este 12 Este 0 -- -- 57
2020-07-30 06:00:00 22 5 Este 9 Este 0 -- -- 53
2020-07-30 05:00:00 22.5 3 Este 8 Este 0 -- -- 52
2020-07-30 04:00:00 24 0 Calma 8 Oeste 0 -- -- 50
2020-07-30 03:00:00 25.1 5 Oeste 12 Noroeste 0 -- -- 49
2020-07-30 02:00:00 26.2 7 Oeste 17 Oeste 0 -- -- 46
2020-07-30 01:00:00 27.8 13 Oeste 18 Oeste 0 -- -- 41
2020-07-30 00:00:00 29 12 Oeste 21 Oeste 0 -- -- 38
2020-07-29 23:00:00 29.3 4 Oeste 12 Oeste 0 -- -- 29
2020-07-29 22:00:00 30.2 6 Sudoeste 9 Oeste 0 -- -- 29
2020-07-29 21:00:00 36.3 3 Sudoeste 17 Oeste 0 -- -- 23
2020-07-29 20:00:00 38.4 12 Noroeste 25 Oeste 0 -- -- 21
2020-07-29 19:00:00 38.6 6 Noroeste 32 Oeste 0 -- -- 21
2020-07-29 18:00:00 37.2 13 Sudoeste 29 Oeste 0 -- -- 22
2020-07-29 17:00:00 36.8 12 Sudoeste 28 Sudoeste 0 -- -- 22
2020-07-29 16:00:00 37.4 12 Noroeste 22 Oeste 0 -- -- 22
2020-07-29 15:00:00 35 8 Noroeste 23 Este 0 -- -- 30
2020-07-29 14:00:00 32.9 7 Este 26 Nordeste 0 -- -- 36
2020-07-29 13:00:00 29.8 16 Este 27 Nordeste 0 -- -- 43
2020-07-29 12:00:00 26.6 13 Nordeste 27 Nordeste 0 -- -- 52
2020-07-29 11:00:00 24.3 12 Este 24 Este 0 -- -- 58
2020-07-29 10:00:00 21.4 15 Este 26 Este 0 -- -- 67
2020-07-29 09:00:00 19.2 17 Nordeste 27 Nordeste 0 -- -- 75
2020-07-29 08:00:00 17.6 13 Nordeste 25 Nordeste 0 -- -- 81
2020-07-29 07:00:00 17.4 15 Nordeste 26 Nordeste 0 -- -- 81
2020-07-29 06:00:00 17.8 15 Nordeste 24 Este 0 -- -- 80
2020-07-29 05:00:00 18.4 13 Nordeste 30 Nordeste 0 -- -- 77
2020-07-29 04:00:00 19.1 13 Nordeste 26 Este 0 -- -- 74
2020-07-29 03:00:00 20.4 15 Nordeste 25 Nordeste 0 -- -- 70
2020-07-29 02:00:00 22.3 12 Nordeste 24 Este 0 -- -- 65
2020-07-29 01:00:00 24.5 12 Nordeste 19 Nordeste 0 -- -- 54
2020-07-29 00:00:00 26.7 9 Nordeste 18 Oeste 0 -- -- 36
2020-07-28 23:00:00 27.4 11 Oeste 20 Oeste 0 -- -- 36
2020-07-28 22:00:00 28.4 6 Oeste 17 Oeste 0 -- -- 34
2020-07-28 21:00:00 33.4 12 Oeste 23 Noroeste 0 -- -- 27
2020-07-28 20:00:00 35.9 12 Noroeste 23 Oeste 0 -- -- 25
2020-07-28 19:00:00 36.2 12 Noroeste 25 Oeste 0 -- -- 25
2020-07-28 18:00:00 37 11 Noroeste 24 Oeste 0 -- -- 25
2020-07-28 17:00:00 35.1 9 Sur 21 Oeste 0 -- -- 29
2020-07-28 16:00:00 35.2 13 Noroeste 23 Noroeste 0 -- -- 29
2020-07-28 15:00:00 32.8 6 Noroeste 19 Oeste 0 -- -- 30
2020-07-28 14:00:00 31.4 10 Noroeste 19 Noroeste 0 -- -- 34
2020-07-28 13:00:00 30.1 6 Norte 15 Norte 0 -- -- 39
2020-07-28 12:00:00 28.4 4 Norte 15 Noroeste 0 -- -- 43
2020-07-28 11:00:00 25.2 7 Noroeste 15 Noroeste 0 -- -- 52
2020-07-28 10:00:00 22.5 4 Norte 10 Norte 0 -- -- 63
2020-07-28 09:00:00 20.5 5 Oeste 9 Oeste 0 -- -- 75
2020-07-28 08:00:00 18.5 6 Oeste 10 Oeste 0 -- -- 81
2020-07-28 07:00:00 17.8 5 Oeste 14 Oeste 0 -- -- 82
2020-07-28 06:00:00 19.2 9 Sudoeste 18 Sudoeste 0 -- -- 77
2020-07-28 05:00:00 20 9 Sudoeste 18 Sudoeste 0 -- -- 73
2020-07-28 04:00:00 20.9 9 Sudoeste 16 Sudoeste 0 -- -- 70
2020-07-28 03:00:00 22 12 Sudoeste 22 Sudoeste 0 -- -- 66
2020-07-28 02:00:00 22.7 9 Sudoeste 27 Oeste 0 -- -- 63
2020-07-28 01:00:00 24.5 16 Oeste 28 Oeste 0 -- -- 57
2020-07-28 00:00:00 26.5 21 Oeste 31 Oeste 0 -- -- 47
2020-07-27 23:00:00 28 13 Oeste 27 Oeste 0 -- -- 41
2020-07-27 22:00:00 29.8 17 Oeste 37 Oeste 0 -- -- 35
2020-07-27 21:00:00 32.7 24 Oeste 40 Oeste 0 -- -- 30
2020-07-27 20:00:00 36.2 17 Noroeste 28 Oeste 0 -- -- 26
2020-07-27 19:00:00 37.4 13 Oeste 29 Noroeste 0 -- -- 25
2020-07-27 18:00:00 38.1 17 Oeste 32 Noroeste 0 -- -- 24
2020-07-27 17:00:00 38.2 18 Oeste 32 Oeste 0 -- -- 23
2020-07-27 16:00:00 37.3 14 Oeste 32 Oeste 0 -- -- 23
2020-07-27 15:00:00 37 16 Oeste 36 Oeste 0 -- -- 26
2020-07-27 14:00:00 36 14 Sudoeste 27 Oeste 0 -- -- 25
2020-07-27 13:00:00 33.6 8 Noroeste 15 Norte 0 -- -- 30
2020-07-27 12:00:00 31.1 6 Norte 12 Norte 0 -- -- 34
2020-07-27 09:00:00 -- -- -- -- -- -- -- -- --
2020-07-27 08:00:00 -- -- -- -- -- -- -- -- --
2020-07-27 07:00:00 -- -- -- -- -- -- -- -- --
2020-07-27 06:00:00 19.7 0 Calma 4 Norte 0 -- -- 53
2020-07-27 05:00:00 20.6 0 Calma 2 Sudeste 0 -- -- 54
2020-07-27 04:00:00 21.6 0 Calma 10 Sudoeste 0 -- -- 50
2020-07-27 03:00:00 22.5 4 Oeste 7 Sudoeste 0 -- -- 50
2020-07-27 02:00:00 23.5 4 Oeste 8 Oeste 0 -- -- 47
2020-07-27 01:00:00 25.9 5 Oeste 12 Oeste 0 -- -- 40
2020-07-27 00:00:00 26 6 Oeste 10 Noroeste 0 -- -- 33
2020-07-26 23:00:00 27 5 Oeste 12 Oeste 0 -- -- 30
2020-07-26 22:00:00 28.9 9 Oeste 13 Oeste 0 -- -- 28
2020-07-26 21:00:00 32.4 7 Oeste 13 Sudoeste 0 -- -- 21
2020-07-26 20:00:00 34.6 10 Sudoeste 24 Oeste 0 -- -- 16
2020-07-26 19:00:00 37.1 11 Noroeste 28 Oeste 0 -- -- 18
2020-07-26 18:00:00 36.7 9 Oeste 22 Oeste 0 -- -- 19
2020-07-26 17:00:00 36.6 12 Noroeste 25 Noroeste 0 -- -- 18
2020-07-26 16:00:00 35.4 10 Noroeste 21 Noroeste 0 -- -- 23
2020-07-26 15:00:00 33.7 10 Noroeste 18 Noroeste 0 -- -- 26
2020-07-26 14:00:00 32 9 Noroeste 18 Noroeste 0 -- -- 29
2020-07-26 13:00:00 30.4 9 Noroeste 16 Noroeste 0 -- -- 33
2020-07-26 12:00:00 27.9 8 Nordeste 16 Nordeste 0 -- -- 41
2020-07-26 11:00:00 24.8 8 Nordeste 14 Este 0 -- -- 49
2020-07-26 10:00:00 21 5 Nordeste 9 Nordeste 0 -- -- 60
2020-07-26 09:00:00 19 2 Nordeste 4 Este 0 -- -- 68
2020-07-26 08:00:00 16.1 3 Oeste 8 Sudeste 0 -- -- 79
2020-07-26 07:00:00 15.9 7 Sudeste 9 Sudeste 0 -- -- 82
2020-07-26 06:00:00 16.1 0 Calma 10 Sur 0 -- -- 78
2020-07-26 05:00:00 17.7 3 Sur 12 Sur 0 -- -- 73
2020-07-26 04:00:00 18.8 8 Sudoeste 15 Sudoeste 0 -- -- 67
2020-07-26 03:00:00 19.9 10 Sudoeste 16 Oeste 0 -- -- 62
2020-07-26 02:00:00 21.5 10 Oeste 20 Oeste 0 -- -- 56
2020-07-26 01:00:00 22.8 14 Oeste 20 Oeste 0 -- -- 51
2020-07-26 00:00:00 24.1 11 Oeste 24 Noroeste 0 -- -- 45
2020-07-25 23:00:00 26 17 Noroeste 27 Noroeste 0 -- -- 39
2020-07-25 22:00:00 27.9 18 Noroeste 37 Oeste 0 -- -- 32
2020-07-25 21:00:00 30.6 26 Oeste 35 Oeste 0 -- -- 23
2020-07-25 20:00:00 33.3 18 Oeste 35 Oeste 0 -- -- 20
2020-07-25 19:00:00 34.4 22 Oeste 37 Oeste 0 -- -- 21
2020-07-25 18:00:00 34.7 21 Oeste 33 Oeste 0 -- -- 19
2020-07-25 17:00:00 34.8 17 Oeste 35 Oeste 0 -- -- 19
2020-07-25 16:00:00 34.2 18 Oeste 35 Oeste 0 -- -- 23
2020-07-25 15:00:00 32.7 16 Oeste 27 Oeste 0 -- -- 28
2020-07-25 14:00:00 31.2 9 Oeste 21 Oeste 0 -- -- 31
2020-07-25 13:00:00 29.4 7 Noroeste 15 Noroeste 0 -- -- 35
2020-07-25 12:00:00 26.3 7 Noroeste 13 Norte 0 -- -- 42
2020-07-25 11:00:00 23.6 6 Norte 13 Norte 0 -- -- 49
2020-07-25 10:00:00 21.6 5 Nordeste 14 Nordeste 0 -- -- 55
2020-07-25 09:00:00 19.4 10 Este 17 Este 0 -- -- 60
2020-07-25 08:00:00 17.3 8 Este 10 Nordeste 0 -- -- 67
2020-07-25 07:00:00 16.7 7 Este 10 Nordeste 0 -- -- 69
2020-07-25 06:00:00 17.1 6 Nordeste 11 Este 0 -- -- 67
2020-07-25 05:00:00 18.2 8 Nordeste 12 Nordeste 0 -- -- 61
2020-07-25 04:00:00 19.5 9 Nordeste 19 Nordeste 0 -- -- 55
2020-07-25 03:00:00 20.1 3 Nordeste 7 Oeste 0 -- -- 48
2020-07-25 02:00:00 21.7 5 Oeste 9 Oeste 0 -- -- 44
2020-07-25 01:00:00 22.5 4 Oeste 13 Oeste 0 -- -- 42
2020-07-25 00:00:00 24.2 8 Oeste 22 Noroeste 0 -- -- 39
2020-07-24 23:00:00 25.7 11 Oeste 21 Oeste 0 -- -- 38
2020-07-24 22:00:00 27.3 16 Oeste 24 Oeste 0 -- -- 35
2020-07-24 21:00:00 31.3 14 Noroeste 25 Oeste 0 -- -- 26
2020-07-24 20:00:00 33.5 16 Noroeste 25 Noroeste 0 -- -- 26
2020-07-24 19:00:00 34.6 14 Noroeste 38 Noroeste 0 -- -- 24
2020-07-24 18:00:00 34.8 14 Noroeste 23 Oeste 0 -- -- 24
2020-07-24 17:00:00 33.5 11 Nordeste 24 Noroeste 0 -- -- 25
2020-07-24 16:00:00 32.7 9 Norte 23 Oeste 0 -- -- 26
2020-07-24 15:00:00 31.5 11 Noroeste 21 Noroeste 0 -- -- 25
2020-07-24 14:00:00 30.6 10 Norte 20 Sudeste 0 -- -- 31
2020-07-24 13:00:00 28.5 8 Este 21 Este 0 -- -- 36
2020-07-24 12:00:00 26.4 10 Este 25 Este 0 -- -- 44
2020-07-24 11:00:00 23.8 11 Este 20 Este 0 -- -- 52
2020-07-24 10:00:00 21.3 12 Este 18 Nordeste 0 -- -- 62
2020-07-24 09:00:00 19.1 8 Nordeste 13 Nordeste 0 -- -- 70
2020-07-24 08:00:00 17.1 4 Nordeste 9 Nordeste 0 -- -- 74
2020-07-24 07:00:00 15.7 3 Norte 6 Norte 0 -- -- 70
2020-07-24 06:00:00 17 2 Nordeste 5 Noroeste 0 -- -- 60
2020-07-24 05:00:00 19 3 Norte 5 Norte 0 -- -- 54
2020-07-24 04:00:00 20 4 Sudeste 9 Nordeste 0 -- -- 51
2020-07-24 03:00:00 20.6 5 Este 8 Sudeste 0 -- -- 49
2020-07-24 02:00:00 22.5 3 Oeste 8 Noroeste 0 -- -- 44
2020-07-24 01:00:00 24.5 5 Noroeste 18 Oeste 0 -- -- 39
2020-07-24 00:00:00 25.2 5 Noroeste 19 Noroeste 0 -- -- 41
2020-07-23 23:00:00 27.5 17 Noroeste 30 Oeste 0 -- -- 38
2020-07-23 22:00:00 28.8 20 Noroeste 32 Oeste 0 -- -- 35
2020-07-23 21:00:00 32 18 Noroeste 37 Oeste 0 -- -- 31
2020-07-23 20:00:00 34 23 Oeste 38 Oeste 0 -- -- 27
2020-07-23 19:00:00 34.8 21 Noroeste 39 Noroeste 0 -- -- 30
2020-07-23 18:00:00 36.3 23 Noroeste 37 Oeste 0 -- -- 25
2020-07-23 17:00:00 35.6 19 Oeste 38 Oeste 0 -- -- 25
2020-07-23 16:00:00 34.6 18 Oeste 37 Oeste 0 -- -- 29
2020-07-23 15:00:00 33.3 13 Noroeste 29 Oeste 0 -- -- 32
2020-07-23 14:00:00 34 9 Noroeste 25 Noroeste 0 -- -- 33
2020-07-23 13:00:00 32 6 Noroeste 13 Norte 0 -- -- 36
2020-07-23 12:00:00 29.2 6 Norte 13 Norte 0 -- -- 45
2020-07-23 11:00:00 26.7 5 Nordeste 13 Norte 0 -- -- 50
2020-07-23 10:00:00 24 5 Norte 10 Norte 0 -- -- 56
2020-07-23 09:00:00 22.3 2 Nordeste 8 Este 0 -- -- 61
2020-07-23 08:00:00 20.2 0 Calma 7 Este 0 -- -- 66
2020-07-23 07:00:00 19.9 7 Este 9 Este 0 -- -- 67
2020-07-23 06:00:00 20.6 2 Este 6 Este 0 -- -- 65
2020-07-23 05:00:00 20.8 0 Calma 5 Noroeste 0 -- -- 63
2020-07-23 04:00:00 21.9 0 Calma 8 Sudoeste 0 -- -- 59
2020-07-23 03:00:00 21.9 6 Oeste 8 Sudoeste 0 -- -- 59
2020-07-23 02:00:00 22.8 0 Calma 8 Oeste 0 -- -- 56
2020-07-23 01:00:00 24.3 5 Oeste 10 Oeste 0 -- -- 51
2020-07-23 00:00:00 25.4 6 Noroeste 11 Nordeste 0 -- -- 48
2020-07-22 23:00:00 26.8 9 Nordeste 23 Norte 0 -- -- 45
2020-07-22 22:00:00 28.1 12 Norte 20 Norte 0 -- -- 41
2020-07-22 21:00:00 31 6 Noroeste 16 Noroeste 0 -- -- 35
2020-07-22 20:00:00 31.5 14 Noroeste 24 Noroeste 0 -- -- 33
2020-07-22 19:00:00 32.7 3 Norte 13 Sudoeste 0 -- -- 30
2020-07-22 18:00:00 33.9 7 Sudoeste 25 Noroeste 0 -- -- 29
2020-07-22 17:00:00 34.6 10 Sudoeste 21 Norte 0 -- -- 29
2020-07-22 16:00:00 32.7 12 Norte 21 Norte 0 -- -- 31
2020-07-22 15:00:00 33.9 9 Norte 19 Noroeste 0 -- -- 30
2020-07-22 14:00:00 31.7 8 Nordeste 26 Nordeste 0 -- -- 33
2020-07-22 13:00:00 30.6 10 Norte 17 Norte 0 -- -- 37
2020-07-22 12:00:00 28.8 9 Norte 15 Norte 0 -- -- 40
2020-07-22 11:00:00 26.3 8 Norte 17 Norte 0 -- -- 47
2020-07-22 10:00:00 24.3 9 Nordeste 17 Este 0 -- -- 54
2020-07-22 09:00:00 22.4 6 Nordeste 10 Nordeste 0 -- -- 60
2020-07-22 08:00:00 19.5 3 Nordeste 6 Este 0 -- -- 68
2020-07-22 07:00:00 18.9 0 Calma 12 Este 0 -- -- 66
2020-07-22 06:00:00 19.8 4 Nordeste 11 Sudeste 0 -- -- 62
2020-07-22 05:00:00 19.5 5 Sur 21 Sur 0 -- -- 63
2020-07-22 04:00:00 20.7 11 Sudeste 18 Sudeste 0 -- -- 56
2020-07-22 03:00:00 21.4 3 Nordeste 20 Sur 0 -- -- 55
2020-07-22 02:00:00 22.8 15 Sur 26 Sur 0 -- -- 50
2020-07-22 01:00:00 24.4 12 Nordeste 26 Nordeste 0 -- -- 45
2020-07-22 00:00:00 24 6 Sur 17 Sur 0 -- -- 50
2020-07-21 23:00:00 23.6 0 Calma 10 Noroeste 0 -- -- 45
2020-07-21 22:00:00 25.1 5 Sudoeste 7 Sudoeste 0 -- -- 43
2020-07-21 21:00:00 27.5 6 Sudeste 18 Sur 0 -- -- 37
2020-07-21 20:00:00 28.2 11 Sur 21 Sur 0 -- -- 35
2020-07-21 19:00:00 28.3 14 Sur 22 Sur 0 -- -- 36
2020-07-21 18:00:00 28.4 15 Sudoeste 31 Sur 0 -- -- 35
2020-07-21 17:00:00 28 16 Sudoeste 39 Sur 0 -- -- 35
2020-07-21 16:00:00 29.1 24 Sur 43 Sudoeste 0 -- -- 34
2020-07-21 15:00:00 30.6 8 Este 19 Nordeste 0 -- -- 34
2020-07-21 14:00:00 27.9 13 Nordeste 23 Norte 0 -- -- 39
2020-07-21 13:00:00 26 3 Norte 23 Sudoeste 0 -- -- 49
2020-07-21 12:00:00 23.6 15 Sudoeste 36 Sudoeste 0 -- -- 55
2020-07-21 11:00:00 24.3 13 Este 23 Nordeste 0 -- -- 56
2020-07-21 10:00:00 21.9 10 Nordeste 14 Sudeste 0 -- -- 64
2020-07-21 09:00:00 20.3 9 Este 17 Nordeste 0 -- -- 69
2020-07-21 08:00:00 19.1 8 Norte 41 Sudoeste 0 -- -- 74
2020-07-21 07:00:00 17.8 10 Este 17 Nordeste 0 -- -- 80
2020-07-21 06:00:00 18.3 10 Nordeste 15 Este 0 -- -- 75
2020-07-21 05:00:00 20 12 Este 17 Este 0 -- -- 59
2020-07-21 04:00:00 21.2 6 Nordeste 10 Norte 0 -- -- 45
2020-07-21 03:00:00 22.9 4 Este 6 Este 0 -- -- 46
2020-07-21 02:00:00 23.8 6 Oeste 9 Oeste 0 -- -- 47
2020-07-21 01:00:00 24.5 6 Oeste 13 Oeste 0 -- -- 35
2020-07-21 00:00:00 27.8 12 Oeste 18 Oeste 0 -- -- 26
2020-07-20 23:00:00 28.9 13 Oeste 19 Oeste 0 -- -- 23
2020-07-20 22:00:00 28.6 7 Oeste 11 Sudoeste 0 -- -- 27
2020-07-20 21:00:00 34.1 6 Noroeste 15 Noroeste 0 -- -- 22
2020-07-20 20:00:00 35.9 9 Noroeste 21 Noroeste 0 -- -- 19
2020-07-20 19:00:00 36 10 Oeste 26 Oeste 0 -- -- 18
2020-07-20 18:00:00 36.8 17 Noroeste 28 Oeste 0 -- -- 17
2020-07-20 17:00:00 35.8 15 Oeste 33 Oeste 0 -- -- 18
2020-07-20 16:00:00 34.6 18 Oeste 31 Oeste 0 -- -- 16
2020-07-20 15:00:00 34.6 15 Oeste 29 Noroeste 0 -- -- 18
2020-07-20 14:00:00 33.5 9 Oeste 22 Noroeste 0 -- -- 26
2020-07-20 13:00:00 31 6 Norte 14 Nordeste 0 -- -- 34
2020-07-20 12:00:00 28.1 6 Norte 15 Nordeste 0 -- -- 45
2020-07-20 11:00:00 25.3 10 Nordeste 17 Nordeste 0 -- -- 51
2020-07-20 10:00:00 22.7 9 Nordeste 18 Este 0 -- -- 57
2020-07-20 09:00:00 20.5 10 Nordeste 16 Nordeste 0 -- -- 61
2020-07-20 08:00:00 18.6 8 Este 11 Nordeste 0 -- -- 65
2020-07-20 07:00:00 17.9 9 Este 13 Este 0 -- -- 68
2020-07-20 06:00:00 17.8 2 Nordeste 6 Nordeste 0 -- -- 63
2020-07-20 05:00:00 19.1 2 Sudoeste 15 Sur 0 -- -- 61
2020-07-20 04:00:00 20.9 10 Sur 19 Sur 0 -- -- 51
2020-07-20 03:00:00 22.2 15 Sur 26 Sudoeste 0 -- -- 43
2020-07-20 02:00:00 23.6 16 Sudoeste 20 Sudoeste 0 -- -- 39
2020-07-20 01:00:00 24.2 11 Sudoeste 18 Oeste 0 -- -- 40
2020-07-20 00:00:00 26.1 15 Sudoeste 21 Oeste 0 -- -- 38
2020-07-19 23:00:00 27.3 14 Oeste 26 Oeste 0 -- -- 37
2020-07-19 22:00:00 29 17 Oeste 37 Oeste 0 -- -- 34
2020-07-19 21:00:00 32.4 22 Oeste 35 Oeste 0 -- -- 29
2020-07-19 20:00:00 34.3 23 Oeste 34 Oeste 0 -- -- 23
2020-07-19 19:00:00 36.2 12 Oeste 30 Oeste 0 -- -- 21
2020-07-19 18:00:00 36.5 17 Oeste 32 Oeste 0 -- -- 20
2020-07-19 17:00:00 35.9 19 Oeste 31 Sudoeste 0 -- -- 20
2020-07-19 16:00:00 35.1 12 Oeste 33 Oeste 0 -- -- 21
2020-07-19 15:00:00 35.1 15 Oeste 28 Sudoeste 0 -- -- 23
2020-07-19 14:00:00 34 11 Oeste 26 Oeste 0 -- -- 26
2020-07-19 13:00:00 32.6 8 Oeste 25 Noroeste 0 -- -- 30
2020-07-19 12:00:00 30.4 9 Noroeste 15 Noroeste 0 -- -- 33
2020-07-19 11:00:00 27.2 3 Oeste 8 Noroeste 0 -- -- 37
2020-07-19 10:00:00 24.4 2 Noroeste 6 Noroeste 0 -- -- 46
2020-07-19 09:00:00 21.7 2 Nordeste 4 Norte 0 -- -- 50
2020-07-19 08:00:00 19.3 0 Calma 4 Oeste 0 -- -- 56
2020-07-19 07:00:00 18.8 0 Calma 6 Este 0 -- -- 56
2020-07-19 06:00:00 20.5 0 Calma 12 Sur 0 -- -- 49
2020-07-19 05:00:00 21.4 0 Calma 8 Sur 0 -- -- 48
2020-07-19 04:00:00 23.1 6 Sudoeste 10 Sur 0 -- -- 44
2020-07-19 03:00:00 24.3 9 Sudoeste 12 Sudoeste 0 -- -- 39
2020-07-19 02:00:00 25.2 9 Oeste 16 Sudoeste 0 -- -- 37
2020-07-19 01:00:00 26.6 12 Oeste 20 Oeste 0 -- -- 35
2020-07-19 00:00:00 27.8 0 Calma 4 Norte 0 -- -- 29
2020-07-18 23:00:00 28.1 2 Este 4 Nordeste 0 -- -- 28
2020-07-18 22:00:00 28.5 0 Calma 9 Oeste 0 -- -- 29
2020-07-18 21:00:00 35.2 6 Noroeste 16 Oeste 0 -- -- 21
2020-07-18 20:00:00 35.9 9 Oeste 21 Oeste 0 -- -- 21
2020-07-18 19:00:00 35.9 9 Sudoeste 23 Oeste 0 -- -- 21
2020-07-18 18:00:00 35 9 Noroeste 20 Oeste 0 -- -- 22
2020-07-18 17:00:00 34.8 6 Nordeste 23 Noroeste 0 -- -- 21
2020-07-18 16:00:00 34.3 5 Oeste 19 Sur 0 -- -- 23
2020-07-18 15:00:00 32.5 8 Nordeste 19 Nordeste 0 -- -- 25
2020-07-18 14:00:00 29.9 10 Nordeste 23 Nordeste 0 -- -- 28
2020-07-18 13:00:00 27.2 13 Este 27 Nordeste 0 -- -- 34
2020-07-18 12:00:00 24.6 16 Este 24 Este 0 -- -- 40
2020-07-18 11:00:00 21.6 13 Nordeste 21 Este 0 -- -- 52
2020-07-18 10:00:00 19.1 12 Nordeste 24 Nordeste 0 -- -- 60
2020-07-18 09:00:00 16.8 13 Este 27 Nordeste 0 -- -- 69
2020-07-18 08:00:00 14.8 14 Nordeste 24 Este 0 -- -- 75
2020-07-18 07:00:00 14.1 11 Este 18 Nordeste 0 -- -- 75
2020-07-18 06:00:00 15.1 10 Nordeste 18 Este 0 -- -- 70
2020-07-18 05:00:00 16.8 10 Este 18 Nordeste 0 -- -- 63
2020-07-18 04:00:00 18.4 13 Este 24 Este 0 -- -- 55
2020-07-18 03:00:00 20.2 17 Este 31 Este 0 -- -- 45
2020-07-18 02:00:00 21.7 14 Este 28 Este 0 -- -- 39
2020-07-18 01:00:00 23 14 Este 31 Este 0 -- -- 33
2020-07-18 00:00:00 24.5 18 Sudeste 26 Sudeste 0 -- -- 29
2020-07-17 23:00:00 25.6 14 Sudeste 21 Este 0 -- -- 27
2020-07-17 22:00:00 27.2 11 Sudeste 18 Este 0 -- -- 26
2020-07-17 21:00:00 32.3 13 Este 21 Este 0 -- -- 19
2020-07-17 20:00:00 34.5 11 Este 21 Este 0 -- -- 16
2020-07-17 19:00:00 34.6 10 Este 22 Este 0 -- -- 17
2020-07-17 18:00:00 34.5 8 Este 24 Este 0 -- -- 18
2020-07-17 17:00:00 33.6 10 Este 25 Este 0 -- -- 19
2020-07-17 16:00:00 33 13 Este 33 Este 0 -- -- 20
2020-07-17 15:00:00 31.7 14 Este 31 Este 0 -- -- 24
2020-07-17 14:00:00 29.9 15 Este 32 Nordeste 0 -- -- 25
2020-07-17 13:00:00 27.6 18 Este 30 Nordeste 0 -- -- 30
2020-07-17 12:00:00 25.5 18 Este 31 Nordeste 0 -- -- 35
2020-07-17 11:00:00 23.5 17 Este 30 Este 0 -- -- 40
2020-07-17 10:00:00 20.9 16 Nordeste 26 Este 0 -- -- 46
2020-07-17 09:00:00 18.5 14 Nordeste 22 Este 0 -- -- 51
2020-07-17 08:00:00 16.5 7 Este 15 Este 0 -- -- 54
2020-07-17 07:00:00 15.8 10 Este 17 Este 0 -- -- 56
2020-07-17 06:00:00 16.9 10 Este 18 Este 0 -- -- 53
2020-07-17 05:00:00 17.9 11 Este 22 Este 0 -- -- 52
2020-07-17 04:00:00 19.5 13 Este 31 Este 0 -- -- 49
2020-07-17 03:00:00 20.8 18 Este 31 Este 0 -- -- 48
2020-07-17 02:00:00 22 14 Este 28 Este 0 -- -- 48
2020-07-17 01:00:00 23.7 13 Este 27 Este 0 -- -- 47
2020-07-17 00:00:00 25.5 20 Este 29 Este 0 -- -- 39
2020-07-16 23:00:00 25.9 13 Este 18 Este 0 -- -- 32
2020-07-16 22:00:00 27.1 12 Este 23 Este 0 -- -- 29
2020-07-16 21:00:00 31.3 12 Este 26 Este 0 -- -- 24
2020-07-16 20:00:00 33.7 12 Este 22 Este 0 -- -- 22
2020-07-16 19:00:00 34.5 9 Nordeste 20 Este 0 -- -- 23
2020-07-16 18:00:00 34.1 9 Nordeste 20 Nordeste 0 -- -- 23
2020-07-16 17:00:00 33.4 8 Nordeste 23 Nordeste 0 -- -- 24
2020-07-16 16:00:00 32.9 8 Sudeste 25 Este 0 -- -- 24
2020-07-16 15:00:00 31.4 13 Este 26 Este 0 -- -- 24
2020-07-16 14:00:00 29.9 12 Nordeste 29 Este 0 -- -- 24
2020-07-16 13:00:00 28 17 Este 28 Este 0 -- -- 23
2020-07-16 12:00:00 25.8 16 Nordeste 28 Este 0 -- -- 28
2020-07-16 11:00:00 23.1 18 Nordeste 32 Este 0 -- -- 35
2020-07-16 10:00:00 20.4 17 Este 30 Nordeste 0 -- -- 44
2020-07-16 09:00:00 18 14 Este 22 Este 0 -- -- 55
2020-07-16 08:00:00 15.8 11 Nordeste 21 Este 0 -- -- 66
2020-07-16 07:00:00 15.3 12 Este 25 Este 0 -- -- 67
2020-07-16 06:00:00 15.7 11 Nordeste 19 Nordeste 0 -- -- 64
2020-07-16 05:00:00 16.8 9 Nordeste 18 Este 0 -- -- 60
2020-07-16 04:00:00 18.2 10 Nordeste 23 Este 0 -- -- 56
2020-07-16 03:00:00 19.7 15 Este 28 Este 0 -- -- 51
2020-07-16 02:00:00 20.8 16 Este 33 Este 0 -- -- 50
2020-07-16 01:00:00 22.2 21 Este 32 Este 0 -- -- 47
2020-07-16 00:00:00 23.1 13 Este 20 Este 0 -- -- 46
2020-07-15 23:00:00 24.8 14 Este 24 Este 0 -- -- 41
2020-07-15 22:00:00 26.4 11 Este 25 Este 0 -- -- 36
2020-07-15 21:00:00 29.8 14 Este 27 Nordeste 0 -- -- 28
2020-07-15 20:00:00 31.4 13 Este 31 Este 0 -- -- 26
2020-07-15 19:00:00 31.6 14 Este 31 Este 0 -- -- 24
2020-07-15 18:00:00 31.5 15 Este 32 Este 0 -- -- 25
2020-07-15 17:00:00 30.9 11 Este 33 Este 0 -- -- 26
2020-07-15 16:00:00 29.9 13 Este 32 Este 0 -- -- 28
2020-07-15 15:00:00 28.7 19 Este 35 Este 0 -- -- 30
2020-07-15 14:00:00 26.8 19 Este 35 Este 0 -- -- 36
2020-07-15 13:00:00 25.2 21 Este 35 Este 0 -- -- 39
2020-07-15 12:00:00 23.2 17 Este 38 Este 0 -- -- 42
2020-07-15 11:00:00 20.6 21 Este 37 Nordeste 0 -- -- 48
2020-07-15 10:00:00 18.6 22 Este 39 Este 0 -- -- 53
2020-07-15 09:00:00 15.9 19 Nordeste 37 Este 0 -- -- 59
2020-07-15 08:00:00 14.2 19 Este 37 Este 0 -- -- 62
2020-07-15 07:00:00 13.3 21 Nordeste 38 Este 0 -- -- 58
2020-07-15 06:00:00 13.7 15 Este 38 Este 0 -- -- 50
2020-07-15 05:00:00 14.7 19 Nordeste 37 Este 0 -- -- 46
2020-07-15 04:00:00 15.2 19 Nordeste 34 Nordeste 0 -- -- 46
2020-07-15 03:00:00 16.3 20 Este 40 Este 0 -- -- 50
2020-07-15 02:00:00 17.7 25 Este 39 Este 0 -- -- 51
2020-07-15 01:00:00 19.7 21 Nordeste 43 Nordeste 0 -- -- 51
2020-07-15 00:00:00 22.8 19 Nordeste 32 Nordeste 0 -- -- 40
2020-07-14 23:00:00 24.3 14 Este 22 Este 0 -- -- 30
2020-07-14 22:00:00 26.1 12 Este 24 Este 0 -- -- 28
2020-07-14 21:00:00 30.2 10 Este 33 Este 0 -- -- 22
2020-07-14 20:00:00 30.9 13 Nordeste 23 Norte 0 -- -- 21
2020-07-14 19:00:00 31.9 13 Norte 21 Nordeste 0 -- -- 21
2020-07-14 18:00:00 32.7 9 Norte 21 Noroeste 0 -- -- 19
2020-07-14 17:00:00 32.2 13 Norte 26 Norte 0 -- -- 21
2020-07-14 16:00:00 31.2 13 Norte 25 Este 0 -- -- 21
2020-07-14 15:00:00 30 7 Norte 22 Nordeste 0 -- -- 20
2020-07-14 14:00:00 28.1 12 Nordeste 26 Nordeste 0 -- -- 18
2020-07-14 13:00:00 26.5 15 Nordeste 32 Nordeste 0 -- -- 20
2020-07-14 12:00:00 24.8 10 Nordeste 25 Este 0 -- -- 25
2020-07-14 11:00:00 23 13 Este 26 Este 0 -- -- 27
2020-07-14 10:00:00 19.7 17 Nordeste 27 Nordeste 0 -- -- 36
2020-07-14 09:00:00 17.3 12 Nordeste 20 Nordeste 0 -- -- 52
2020-07-14 08:00:00 15.5 10 Nordeste 17 Nordeste 0 -- -- 56
2020-07-14 07:00:00 15.3 9 Este 17 Este 0 -- -- 56
2020-07-14 06:00:00 16.5 12 Nordeste 28 Este 0 -- -- 50
2020-07-14 05:00:00 17.4 15 Este 32 Este 0 -- -- 53
2020-07-14 04:00:00 17.9 14 Este 26 Nordeste 0 -- -- 59
2020-07-14 03:00:00 19.1 14 Este 33 Nordeste 0 -- -- 58
2020-07-14 02:00:00 20.5 13 Este 32 Este 0 -- -- 54
2020-07-14 01:00:00 22.6 14 Este 31 Este 0 -- -- 50
2020-07-14 00:00:00 24.5 19 Este 28 Este 0 -- -- 44
2020-07-13 23:00:00 25.1 11 Este 15 Este 0 -- -- 42
2020-07-13 22:00:00 27.2 11 Este 19 Este 0 -- -- 36
2020-07-13 21:00:00 31 10 Nordeste 23 Norte 0 -- -- 30
2020-07-13 20:00:00 32.2 10 Nordeste 24 Nordeste 0 -- -- 29
2020-07-13 19:00:00 32.9 14 Norte 26 Nordeste 0 -- -- 26
2020-07-13 18:00:00 32.8 10 Nordeste 28 Norte 0 -- -- 28
2020-07-13 17:00:00 32.3 11 Nordeste 25 Norte 0 -- -- 29
2020-07-13 16:00:00 30.8 13 Norte 30 Norte 0 -- -- 32
2020-07-13 15:00:00 30.4 11 Nordeste 30 Este 0 -- -- 34
2020-07-13 14:00:00 29 12 Nordeste 27 Nordeste 0 -- -- 37
2020-07-13 13:00:00 27.4 14 Nordeste 29 Este 0 -- -- 41
2020-07-13 12:00:00 24.5 17 Nordeste 27 Nordeste 0 -- -- 48
2020-07-13 11:00:00 21.9 16 Nordeste 27 Nordeste 0 -- -- 58
2020-07-13 10:00:00 20.2 15 Nordeste 27 Nordeste 0 -- -- 67
2020-07-13 09:00:00 18.2 14 Nordeste 25 Nordeste 0 -- -- 76
2020-07-13 08:00:00 16.7 10 Nordeste 19 Nordeste 0 -- -- 83
2020-07-13 07:00:00 16.1 12 Nordeste 21 Nordeste 0 -- -- 87
2020-07-13 06:00:00 16.6 12 Este 27 Nordeste 0 -- -- 84
2020-07-13 05:00:00 17.4 14 Nordeste 25 Nordeste 0 -- -- 84
2020-07-13 04:00:00 18.7 12 Nordeste 22 Nordeste 0 -- -- 79
2020-07-13 03:00:00 20 12 Este 24 Este 0 -- -- 69
2020-07-13 02:00:00 21.7 11 Nordeste 28 Nordeste 0 -- -- 64
2020-07-13 01:00:00 23.6 8 Nordeste 17 Nordeste 0 -- -- 52
2020-07-13 00:00:00 25.4 8 Este 12 Este 0 -- -- 44